Sakaide Maru — 3EYR6 — position and weather

sailwx.info

Track history (hours):
 
Tides and Currents Weather Stations Pressure Air Temp Water Temp Dewpoint Dewpoint Depression Visibility Wind Speed Wind Dir Waves Ship Positions

Sakaide Maru

Last reported at 2016-Jun-04 14:06 UTC. Time now 2016-Jun-25 23:17 UTC.
Position N 33°52' E 134°58'.
Warning: this ship's position is 21 days out of date.

Length 255 m; draft 7.1 m.

Type: Ship. MMSI: 354898000.

Date/timePositionNaut miles runAvg speedWind from/ knotsBaromVisibWave heightAir tempDewpointWater temp
2016-Jun-04 14:06N 33°52' E 134°58'813.4
2016-Jun-04 13:32N 33°60' E 134°57'1313.3
2016-Jun-04 12:33N 34°13' E 134°58'1110.6
2016-Jun-04 11:33N 34°23' E 135°00'1211.7
2016-Jun-04 10:33N 34°33' E 135°07'7 7.1
2016-Jun-04 09:31N 34°37' E 134°59'1111.3
2016-Jun-04 08:32N 34°33' E 134°47'  
2016-May-29 00:33N 34°34' E 134°50'10 9.6
2016-May-28 23:30N 34°37' E 135°02'6 6.7
2016-May-28 22:33N 34°34' E 135°10'1010.1
2016-May-28 21:33N 34°25' E 135°04'1111.1
2016-May-28 20:33N 34°15' E 134°59'8 8.5
2016-May-28 19:33N 34°06' E 134°59'6 6.3
2016-May-28 18:33N 34°00' E 134°58'7 6.6
2016-May-28 17:31N 33°53' E 134°58'  
Track history (hours):
 
Tides and Currents Weather Stations Pressure Air Temp Water Temp Dewpoint Dewpoint Depression Visibility Wind Speed Wind Dir Waves Ship Positions

Sakaide Maru

Last reported at 2016-Jun-04 14:06 UTC. Time now 2016-Jun-25 23:17 UTC.
Position N 33°52' E 134°58'.
Warning: this ship's position is 21 days out of date.

Length 255 m; draft 7.1 m.

Type: Ship. MMSI: 354898000.

Date/timePositionNaut miles runAvg speedWind from/ knotsBaromVisibWave heightAir tempDewpointWater temp
2016-Jun-04 14:06N 33°52' E 134°58'813.4
2016-Jun-04 13:32N 33°60' E 134°57'1313.3
2016-Jun-04 12:33N 34°13' E 134°58'1110.6
2016-Jun-04 11:33N 34°23' E 135°00'1211.7
2016-Jun-04 10:33N 34°33' E 135°07'7 7.1
2016-Jun-04 09:31N 34°37' E 134°59'1111.3
2016-Jun-04 08:32N 34°33' E 134°47'  
2016-May-29 00:33N 34°34' E 134°50'10 9.6
2016-May-28 23:30N 34°37' E 135°02'6 6.7
2016-May-28 22:33N 34°34' E 135°10'1010.1
2016-May-28 21:33N 34°25' E 135°04'1111.1
2016-May-28 20:33N 34°15' E 134°59'8 8.5
2016-May-28 19:33N 34°06' E 134°59'6 6.3
2016-May-28 18:33N 34°00' E 134°58'7 6.6
2016-May-28 17:31N 33°53' E 134°58'  

Dump ship's entire track history